Morton, WA (98356)

4:51 AM PST on December 05, 2016 (GMT -0800)
Cinebar, WA | | Change Station

Elev 1014 ft 46.60 °N, 122.48 °W | Updated 24 seconds ago

Light Rain
Light Rain
33.4 °F
Feels Like 33 °F
N
0.4
Wind Variable Wind from East
Gusts 2.5 mph

Today
High -- | Low -- °F
--% Chance of Precip.
Yesterday
High -- | Low -- °F
Precip. -- in
Pressure 30.14 in
Visibility 7.0 miles
Clouds Mostly Cloudy 900 ft
Overcast 2200 ft
Windchill 33 °F
Dew Point 32 °F
Humidity 93%
Rainfall in
Snow Depth Not available.
7:37 AM 4:22 PM
Waxing Crescent, 31% visible
METAR KCLS 051235Z AUTO 16009KT 7SM -RA BKN009 OVC022 02/02 A3014 RMK AO2
Pressure 30.14 in
Visibility 7.0 miles
Clouds Mostly Cloudy 900 ft
Overcast 2200 ft
Windchill 33 °F
Dew Point 32 °F
Humidity 93%
Rainfall in
Snow Depth Not available.
7:37 AM 4:22 PM
Waxing Crescent, 31% visible
METAR KCLS 051235Z AUTO 16009KT 7SM -RA BKN009 OVC022 02/02 A3014 RMK AO2

10-Day Weather Forecast

Almanac

Astronomy

Dec. 05, 2016 Rise Set
Actual Time
Civil Twilight
Nautical Twilight
Astronomical Twilight
Moon
Length of Visible Light
Length of Day
Tomorrow will be .
, % of the Moon is Illuminated

Today's Extremes

State Highs State Lows

Community

WunderPhotos

Upload Photos

1,955,778 photos uploaded!

WunderBlog® & News

Nearby

Air Quality

  Air Quality AQ Index Pollutant
Not available.

Snow Depth

Station Depth Elevation

Earthquake Activity

City Distance Mag. Time & Date
Minimum magnitude displayed is 2.5.

Coastal Water Temperatures

Place Temperature

Stations

Nearby Weather Stations

Station Location Temp. Windchill Dew Point Humidity Wind Precip. Elev Updated Type
                   

Watches & Warnings

There are currently no watches in effect.